Time;durP1;ratioP1;P1;durP2;ratioP2;P2;SDS_P1;SDS_P2;PMS_P1;PMS_P2;Temp;Humidity;BMP_temperature;BMP_pressure;BME280_temperature;BME280_humidity;BME280_pressure;Samples;Min_cycle;Max_cycle;Signal;HPM_P1;HPM_P2
2023/03/19 00:00:04;;;;;;;21.08;9.68;;;8.20;99.90;;;;;;5063160;28;20112;-68
2023/03/19 00:02:31;;;;;;;21.35;9.95;;;8.20;99.90;;;;;;5047602;28;20037;-68
2023/03/19 00:04:57;;;;;;;21.95;9.98;;;8.20;99.90;;;;;;5058241;28;20024;-69
2023/03/19 00:07:22;;;;;;;19.52;9.95;;;8.20;99.90;;;;;;5058015;28;20069;-66
2023/03/19 00:09:48;;;;;;;21.27;9.98;;;8.20;99.90;;;;;;5049457;28;20021;-69
2023/03/19 00:12:13;;;;;;;21.30;10.20;;;8.20;99.90;;;;;;5038516;28;20033;-68
2023/03/19 00:14:39;;;;;;;21.45;9.88;;;8.10;99.90;;;;;;5021047;28;20033;-68
2023/03/19 00:17:05;;;;;;;18.52;9.70;;;8.20;99.90;;;;;;5051792;28;20512;-69
2023/03/19 00:19:31;;;;;;;19.48;9.93;;;8.20;99.90;;;;;;5060988;28;20448;-68
2023/03/19 00:21:57;;;;;;;23.10;9.98;;;8.20;99.90;;;;;;5050552;28;20053;-68
2023/03/19 00:24:23;;;;;;;16.90;9.13;;;8.20;99.90;;;;;;5058154;28;20119;-66
2023/03/19 00:26:50;;;;;;;23.80;10.48;;;8.20;99.90;;;;;;5053835;28;20029;-69
2023/03/19 00:29:15;;;;;;;23.35;10.18;;;8.20;99.90;;;;;;5057774;28;20477;-68
2023/03/19 00:31:41;;;;;;;19.42;9.68;;;8.10;99.90;;;;;;5035574;28;20063;-68
2023/03/19 00:34:08;;;;;;;19.98;9.30;;;8.20;99.90;;;;;;5055466;28;20044;-69
2023/03/19 00:36:34;;;;;;;16.70;8.32;;;8.20;99.90;;;;;;5047676;28;20239;-68
2023/03/19 00:39:00;;;;;;;16.55;8.50;;;8.10;99.90;;;;;;5063514;28;20028;-69
2023/03/19 00:41:26;;;;;;;16.55;8.60;;;8.10;99.90;;;;;;5050381;28;20105;-66
2023/03/19 00:43:54;;;;;;;16.88;8.90;;;8.10;99.90;;;;;;5045557;28;20143;-68
2023/03/19 00:46:20;;;;;;;19.95;8.93;;;8.10;99.90;;;;;;5050116;28;20112;-68
2023/03/19 00:48:46;;;;;;;17.55;8.63;;;8.10;99.90;;;;;;5046381;28;20108;-69
2023/03/19 00:51:11;;;;;;;18.80;8.88;;;8.10;99.90;;;;;;5053901;28;20032;-68
2023/03/19 00:53:38;;;;;;;18.23;8.45;;;8.00;99.90;;;;;;5039293;28;20046;-68
2023/03/19 00:56:06;;;;;;;16.00;8.07;;;7.90;99.90;;;;;;5060314;28;20028;-68
2023/03/19 00:58:32;;;;;;;19.05;7.57;;;7.90;99.90;;;;;;5060978;28;20107;-69
2023/03/19 01:00:57;;;;;;;20.27;7.85;;;7.80;99.90;;;;;;5056430;28;20441;-68
2023/03/19 01:03:23;;;;;;;21.77;9.15;;;7.80;99.90;;;;;;5062189;28;20036;-68
2023/03/19 01:05:49;;;;;;;20.90;8.73;;;7.60;99.90;;;;;;5049503;28;20031;-69
2023/03/19 01:08:16;;;;;;;25.42;8.68;;;7.50;99.90;;;;;;5061948;28;20461;-68
2023/03/19 01:10:46;;;;;;;17.60;8.52;;;7.40;99.90;;;;;;5059855;28;20051;-69
2023/03/19 01:13:13;;;;;;;15.35;7.93;;;7.40;99.90;;;;;;5037038;28;20029;-68
2023/03/19 01:15:41;;;;;;;18.92;8.00;;;7.50;99.90;;;;;;5054208;28;20068;-68
2023/03/19 01:18:07;;;;;;;20.98;8.30;;;7.50;99.90;;;;;;5039189;28;20039;-68
2023/03/19 01:20:34;;;;;;;19.50;8.30;;;7.50;99.90;;;;;;5050619;28;20139;-69
2023/03/19 01:23:00;;;;;;;19.58;8.50;;;7.60;99.90;;;;;;5048835;28;20045;-69
2023/03/19 01:25:27;;;;;;;20.95;8.60;;;7.60;99.90;;;;;;5049554;28;20033;-68
2023/03/19 01:27:53;;;;;;;18.13;8.13;;;7.70;99.90;;;;;;5045735;28;20075;-69
2023/03/19 01:30:19;;;;;;;16.08;7.53;;;7.80;99.90;;;;;;5057625;28;20102;-69
2023/03/19 01:32:45;;;;;;;17.35;8.05;;;7.80;99.90;;;;;;5049634;28;20045;-68
2023/03/19 01:35:10;;;;;;;20.90;7.93;;;7.80;99.90;;;;;;5043958;28;20028;-68
2023/03/19 01:37:37;;;;;;;14.55;7.43;;;7.90;99.90;;;;;;5054319;28;20123;-68
2023/03/19 01:40:04;;;;;;;16.17;7.72;;;7.90;99.90;;;;;;5041299;28;20025;-68
2023/03/19 01:42:31;;;;;;;17.02;7.85;;;7.90;99.90;;;;;;5051519;28;20136;-66
2023/03/19 01:44:57;;;;;;;14.90;7.03;;;7.80;99.90;;;;;;5049636;28;20024;-68
2023/03/19 01:47:35;;;;;;;17.05;7.30;;;7.80;99.90;;;;;;5044518;28;20028;-69
2023/03/19 01:50:02;;;;;;;15.52;7.13;;;7.80;99.90;;;;;;5050586;28;20025;-68
2023/03/19 01:52:31;;;;;;;15.45;7.13;;;7.80;99.90;;;;;;5047767;28;20041;-67
2023/03/19 01:55:00;;;;;;;20.92;7.65;;;7.90;99.90;;;;;;5056820;28;20033;-69
2023/03/19 01:57:26;;;;;;;19.67;7.32;;;7.90;99.90;;;;;;5053984;28;20099;-68
2023/03/19 01:59:55;;;;;;;14.00;6.55;;;7.70;99.90;;;;;;5048858;28;20626;-67
2023/03/19 02:02:29;;;;;;;15.00;7.32;;;7.70;99.90;;;;;;5032606;28;20037;-69
2023/03/19 02:05:14;;;;;;;16.42;7.32;;;7.70;99.90;;;;;;5029585;28;20044;-69
2023/03/19 02:07:42;;;;;;;17.90;7.80;;;7.70;99.90;;;;;;5058438;28;20044;-68
2023/03/19 02:10:12;;;;;;;15.95;7.40;;;7.80;99.90;;;;;;5045286;28;20118;-67
2023/03/19 02:12:38;;;;;;;15.10;7.47;;;7.80;99.90;;;;;;5022116;28;20043;-68
2023/03/19 02:15:04;;;;;;;15.05;7.32;;;7.90;99.90;;;;;;5056658;28;20029;-69
2023/03/19 02:17:31;;;;;;;14.80;7.20;;;7.80;99.90;;;;;;5050835;28;20043;-65
2023/03/19 02:20:00;;;;;;;13.98;7.43;;;7.60;99.90;;;;;;5044440;28;20075;-68
2023/03/19 02:22:28;;;;;;;12.35;6.85;;;7.60;99.90;;;;;;5045160;28;20037;-68
2023/03/19 02:25:15;;;;;;;13.50;6.82;;;7.60;99.90;;;;;;5035940;28;20033;-68
2023/03/19 02:27:41;;;;;;;16.05;7.05;;;7.50;99.90;;;;;;5036800;28;20032;-68
2023/03/19 02:30:26;;;;;;;13.85;6.72;;;7.60;99.90;;;;;;5054008;28;20033;-69
2023/03/19 02:32:52;;;;;;;13.82;6.70;;;7.70;99.90;;;;;;5037581;28;20656;-69
2023/03/19 02:35:18;;;;;;;15.23;7.70;;;7.70;99.90;;;;;;5049141;28;20109;-69
2023/03/19 02:37:44;;;;;;;18.08;7.85;;;7.50;99.90;;;;;;5045751;28;20083;-68
2023/03/19 02:40:28;;;;;;;19.33;7.72;;;7.40;99.90;;;;;;5045652;28;20503;-69
2023/03/19 02:42:53;;;;;;;18.83;9.10;;;7.40;99.90;;;;;;5043884;28;20084;-68
2023/03/19 02:45:20;;;;;;;16.10;8.38;;;7.60;99.90;;;;;;5059903;28;20457;-68
2023/03/19 02:47:46;;;;;;;19.98;9.60;;;7.90;99.90;;;;;;5055579;28;20078;-68
2023/03/19 02:50:11;;;;;;;19.38;9.95;;;8.10;99.90;;;;;;5035949;28;20033;-67
2023/03/19 02:52:37;;;;;;;22.27;9.48;;;8.30;99.90;;;;;;5049482;28;20045;-68
2023/03/19 02:55:03;;;;;;;18.02;9.05;;;8.40;99.90;;;;;;5033624;28;20050;-68
2023/03/19 02:57:29;;;;;;;13.20;6.70;;;8.40;99.90;;;;;;5049662;28;20033;-68
2023/03/19 02:59:55;;;;;;;13.15;6.15;;;8.00;99.90;;;;;;5052195;28;20635;-69
2023/03/19 03:02:21;;;;;;;12.70;6.50;;;7.60;99.90;;;;;;5040293;28;20045;-67
2023/03/19 03:04:47;;;;;;;16.13;6.85;;;7.30;99.90;;;;;;5054474;28;20029;-68
2023/03/19 03:07:12;;;;;;;16.75;6.55;;;7.20;99.90;;;;;;5050279;28;20107;-68
2023/03/19 03:09:38;;;;;;;21.27;8.00;;;7.30;99.90;;;;;;5066957;28;20089;-69
2023/03/19 03:12:05;;;;;;;16.90;9.10;;;7.40;99.90;;;;;;5053355;28;20111;-69
2023/03/19 03:14:30;;;;;;;20.92;9.18;;;7.60;99.90;;;;;;5059799;28;20064;-69
2023/03/19 03:16:57;;;;;;;19.05;9.55;;;7.80;99.90;;;;;;5059169;28;20067;-69
2023/03/19 03:19:23;;;;;;;21.08;9.82;;;8.00;99.90;;;;;;5061105;28;20024;-69
2023/03/19 03:21:49;;;;;;;19.15;9.15;;;8.20;99.90;;;;;;5053175;28;20055;-68
2023/03/19 03:24:14;;;;;;;20.70;9.55;;;8.40;99.90;;;;;;5055065;28;20036;-68
2023/03/19 03:26:40;;;;;;;19.48;8.60;;;8.60;99.90;;;;;;5054792;28;20410;-68
2023/03/19 03:29:06;;;;;;;17.80;8.48;;;8.70;99.90;;;;;;5068571;28;20186;-69
2023/03/19 03:31:33;;;;;;;15.93;8.50;;;8.80;99.90;;;;;;5048376;28;20056;-68
2023/03/19 03:34:00;;;;;;;17.50;8.13;;;8.80;99.90;;;;;;5051836;28;20075;-68
2023/03/19 03:36:26;;;;;;;16.90;8.10;;;9.00;99.90;;;;;;5043180;28;20033;-68
2023/03/19 03:38:52;;;;;;;18.40;8.23;;;9.00;99.90;;;;;;5059074;28;20067;-68
2023/03/19 03:41:18;;;;;;;16.08;8.00;;;9.00;99.90;;;;;;5061475;28;20036;-68
2023/03/19 03:43:44;;;;;;;18.90;8.48;;;9.00;99.90;;;;;;5045612;28;20083;-68
2023/03/19 03:46:10;;;;;;;18.02;7.63;;;9.00;99.90;;;;;;5056374;28;20035;-68
2023/03/19 03:48:35;;;;;;;13.73;7.50;;;9.00;99.90;;;;;;5056799;28;20517;-65
2023/03/19 03:51:02;;;;;;;17.25;8.02;;;9.00;99.90;;;;;;5063443;28;20119;-68
2023/03/19 03:53:28;;;;;;;15.00;8.13;;;9.00;99.90;;;;;;5053666;28;20361;-68
2023/03/19 03:55:53;;;;;;;15.48;7.93;;;9.00;99.90;;;;;;5043532;28;20054;-68
2023/03/19 03:58:19;;;;;;;18.73;7.80;;;9.00;99.90;;;;;;5063352;28;20028;-68
2023/03/19 04:00:46;;;;;;;17.73;7.32;;;8.90;99.90;;;;;;5060468;28;20040;-69
2023/03/19 04:03:12;;;;;;;13.70;8.20;;;8.90;99.90;;;;;;5050712;28;20063;-68
2023/03/19 04:05:38;;;;;;;16.67;8.23;;;8.90;99.90;;;;;;5049473;28;20068;-66
2023/03/19 04:08:04;;;;;;;18.02;8.68;;;8.90;99.90;;;;;;5053250;28;20044;-67
2023/03/19 04:10:30;;;;;;;16.95;8.98;;;8.90;99.90;;;;;;5054402;28;20044;-68
2023/03/19 04:12:56;;;;;;;17.67;8.57;;;8.90;99.90;;;;;;5053258;28;20032;-68
2023/03/19 04:15:22;;;;;;;18.63;9.13;;;8.90;99.90;;;;;;5049874;28;20374;-68
2023/03/19 04:17:48;;;;;;;18.98;9.05;;;8.90;99.90;;;;;;5056536;28;20090;-68
2023/03/19 04:20:15;;;;;;;15.82;9.30;;;8.70;99.90;;;;;;5059074;28;20452;-68
2023/03/19 04:22:40;;;;;;;18.08;8.82;;;8.70;99.90;;;;;;5063735;28;20040;-65
2023/03/19 04:25:07;;;;;;;18.13;8.73;;;8.70;99.90;;;;;;5048167;28;20033;-69
2023/03/19 04:27:33;;;;;;;19.30;9.45;;;8.70;99.90;;;;;;5046420;28;20431;-67
2023/03/19 04:29:58;;;;;;;20.85;8.90;;;8.70;99.90;;;;;;5052460;28;20023;-68
2023/03/19 04:32:24;;;;;;;17.98;8.30;;;8.70;99.90;;;;;;5048331;28;20087;-68
2023/03/19 04:34:50;;;;;;;18.58;9.05;;;8.70;99.90;;;;;;5047413;28;20555;-69
2023/03/19 04:37:16;;;;;;;17.70;8.52;;;8.70;99.90;;;;;;5059011;28;20099;-68
2023/03/19 04:39:43;;;;;;;14.25;8.30;;;8.70;99.90;;;;;;5051723;28;20026;-66
2023/03/19 04:42:09;;;;;;;18.52;8.73;;;8.70;99.90;;;;;;5057856;28;20045;-68
2023/03/19 04:44:35;;;;;;;21.08;9.18;;;8.70;99.90;;;;;;5054011;28;20042;-67
2023/03/19 04:47:01;;;;;;;22.67;9.38;;;8.60;99.90;;;;;;5053159;28;20744;-68
2023/03/19 04:49:26;;;;;;;17.65;8.95;;;8.60;99.90;;;;;;5053369;28;20218;-68
2023/03/19 04:51:52;;;;;;;21.92;9.00;;;8.60;99.90;;;;;;5048443;28;20104;-68
2023/03/19 04:54:17;;;;;;;19.95;8.82;;;8.50;99.90;;;;;;5053821;28;20089;-68
2023/03/19 04:56:43;;;;;;;17.77;8.93;;;8.40;99.90;;;;;;5057581;28;20021;-66
2023/03/19 04:59:09;;;;;;;17.40;9.40;;;8.40;99.90;;;;;;5058001;28;20024;-67
2023/03/19 05:01:35;;;;;;;17.77;9.60;;;8.30;99.90;;;;;;5068434;28;20039;-69
2023/03/19 05:04:01;;;;;;;20.88;9.10;;;8.20;99.90;;;;;;5054420;28;20135;-69
2023/03/19 05:06:27;;;;;;;17.83;9.68;;;8.20;99.90;;;;;;5051173;28;20109;-70
2023/03/19 05:08:53;;;;;;;24.05;9.38;;;8.20;99.90;;;;;;5050288;28;20128;-69
2023/03/19 05:11:19;;;;;;;20.50;9.40;;;8.20;99.90;;;;;;5053252;28;20036;-69
2023/03/19 05:13:44;;;;;;;20.77;9.98;;;8.20;99.90;;;;;;5050955;28;20033;-66
2023/03/19 05:16:12;;;;;;;16.23;9.43;;;8.20;99.90;;;;;;5055214;28;20512;-70
2023/03/19 05:18:37;;;;;;;20.02;9.45;;;8.30;99.90;;;;;;5045013;28;20021;-69
2023/03/19 05:21:03;;;;;;;22.88;9.65;;;8.30;99.90;;;;;;5051977;28;20147;-69
2023/03/19 05:23:29;;;;;;;16.92;8.85;;;8.30;99.90;;;;;;5050239;28;20045;-68
2023/03/19 05:25:59;;;;;;;16.58;9.38;;;8.40;99.90;;;;;;5048571;28;20120;-70
2023/03/19 05:28:25;;;;;;;18.55;9.02;;;8.40;99.90;;;;;;5049492;28;20032;-69
2023/03/19 05:30:51;;;;;;;17.45;9.98;;;8.40;99.90;;;;;;5050405;28;20106;-69
2023/03/19 05:33:16;;;;;;;28.08;9.43;;;8.40;99.90;;;;;;5065335;28;20039;-69
2023/03/19 05:35:42;;;;;;;20.92;9.85;;;8.40;99.90;;;;;;5062053;28;20033;-65
2023/03/19 05:38:09;;;;;;;21.65;10.50;;;8.30;99.90;;;;;;5044598;28;20060;-69
2023/03/19 05:40:35;;;;;;;20.92;9.68;;;8.30;99.90;;;;;;5056397;28;20394;-70
2023/03/19 05:43:01;;;;;;;23.60;10.48;;;8.30;99.90;;;;;;5042115;28;20037;-69
2023/03/19 05:45:27;;;;;;;20.50;9.82;;;8.20;99.90;;;;;;5047559;28;20094;-70
2023/03/19 05:47:52;;;;;;;16.23;8.13;;;8.20;99.90;;;;;;5033180;28;20127;-67
2023/03/19 05:50:18;;;;;;;21.75;9.23;;;8.30;99.90;;;;;;5044236;28;20112;-70
2023/03/19 05:52:44;;;;;;;18.23;9.02;;;8.30;99.90;;;;;;5038467;28;20045;-67
2023/03/19 05:55:10;;;;;;;13.32;7.43;;;8.40;99.90;;;;;;5048707;28;20053;-70
2023/03/19 05:57:36;;;;;;;16.52;8.02;;;8.40;99.90;;;;;;5054962;28;20107;-70
2023/03/19 06:00:02;;;;;;;14.30;7.10;;;8.40;99.90;;;;;;5057984;28;20031;-69
2023/03/19 06:02:28;;;;;;;13.27;6.88;;;8.40;99.90;;;;;;5046061;28;20036;-69
2023/03/19 06:04:53;;;;;;;15.05;6.97;;;8.40;99.90;;;;;;5052363;28;20437;-70
2023/03/19 06:07:19;;;;;;;12.50;6.70;;;8.40;99.90;;;;;;5047991;28;20063;-69
2023/03/19 06:09:45;;;;;;;11.48;5.95;;;8.50;99.90;;;;;;5034298;28;20029;-67
2023/03/19 06:12:11;;;;;;;11.95;5.38;;;8.60;99.90;;;;;;5058020;28;20085;-70
2023/03/19 06:14:36;;;;;;;12.15;5.43;;;8.60;99.90;;;;;;5062094;28;20388;-73
2023/03/19 06:17:02;;;;;;;9.25;5.07;;;8.70;99.90;;;;;;5045242;28;20112;-72
2023/03/19 06:19:28;;;;;;;12.30;6.90;;;8.70;99.90;;;;;;5043030;28;20518;-73
2023/03/19 06:21:53;;;;;;;12.55;6.50;;;8.80;99.90;;;;;;5042686;28;20061;-72
2023/03/19 06:24:19;;;;;;;14.38;6.82;;;8.80;99.90;;;;;;5057448;28;20090;-70
2023/03/19 06:26:45;;;;;;;19.85;8.95;;;8.80;99.90;;;;;;5052222;28;20029;-66
2023/03/19 06:29:10;;;;;;;14.55;7.03;;;8.80;99.90;;;;;;5045331;28;20025;-69
2023/03/19 06:31:38;;;;;;;13.63;7.40;;;8.80;99.90;;;;;;5049554;28;20186;-70
2023/03/19 06:34:04;;;;;;;14.10;8.23;;;8.80;99.90;;;;;;5051542;28;20041;-69
2023/03/19 06:36:30;;;;;;;18.98;8.25;;;8.80;99.90;;;;;;5048839;28;20044;-70
2023/03/19 06:38:56;;;;;;;13.93;8.45;;;8.90;99.90;;;;;;5053621;28;20394;-69
2023/03/19 06:41:23;;;;;;;17.33;9.30;;;8.90;99.90;;;;;;5041956;28;20100;-68
2023/03/19 06:43:49;;;;;;;19.98;10.27;;;8.90;99.90;;;;;;5057502;28;20392;-66
2023/03/19 06:46:15;;;;;;;16.30;9.23;;;8.90;99.90;;;;;;5049280;28;20037;-70
2023/03/19 06:48:41;;;;;;;17.27;9.55;;;8.90;99.90;;;;;;5050439;28;20029;-70
2023/03/19 06:51:07;;;;;;;18.63;9.73;;;8.90;99.90;;;;;;5038773;28;20701;-70
2023/03/19 06:53:33;;;;;;;19.00;10.02;;;8.90;99.90;;;;;;5052556;28;20047;-70
2023/03/19 06:55:59;;;;;;;18.50;10.68;;;9.00;99.90;;;;;;5046343;28;20039;-69
2023/03/19 06:58:24;;;;;;;21.58;11.00;;;9.00;99.90;;;;;;5055517;28;20037;-69
2023/03/19 07:00:53;;;;;;;20.23;10.68;;;9.10;99.90;;;;;;5042797;28;20029;-66
2023/03/19 07:03:18;;;;;;;18.45;10.23;;;9.00;99.90;;;;;;5055901;28;20777;-69
2023/03/19 07:05:44;;;;;;;27.13;14.05;;;9.00;99.90;;;;;;5045001;28;20056;-69
2023/03/19 07:08:11;;;;;;;30.55;17.08;;;8.90;99.90;;;;;;5051095;28;20096;-68
2023/03/19 07:10:40;;;;;;;27.45;14.85;;;8.90;99.90;;;;;;5046722;28;20116;-69
2023/03/19 07:13:06;;;;;;;25.25;13.00;;;8.80;99.90;;;;;;5053603;28;20033;-69
2023/03/19 07:15:32;;;;;;;21.42;12.13;;;8.80;99.90;;;;;;5045972;28;20083;-68
2023/03/19 07:17:58;;;;;;;19.80;10.93;;;8.90;99.90;;;;;;5046332;28;20060;-69
2023/03/19 07:20:23;;;;;;;20.15;11.15;;;8.90;99.90;;;;;;5045184;28;20073;-69
2023/03/19 07:22:52;;;;;;;24.73;12.35;;;8.90;99.90;;;;;;5049998;28;20136;-66
2023/03/19 07:25:18;;;;;;;17.35;8.48;;;8.90;99.90;;;;;;5063266;28;20089;-69
2023/03/19 07:27:44;;;;;;;15.93;8.75;;;8.90;99.90;;;;;;5046045;28;20432;-69
2023/03/19 07:30:11;;;;;;;15.90;8.52;;;8.90;99.90;;;;;;5036916;28;20029;-69
2023/03/19 07:32:37;;;;;;;14.18;8.40;;;8.90;99.90;;;;;;5050598;28;20059;-69
2023/03/19 07:35:04;;;;;;;17.40;8.07;;;9.00;99.90;;;;;;5051592;28;20029;-70
2023/03/19 07:37:30;;;;;;;11.68;7.07;;;9.10;99.90;;;;;;5042701;28;20048;-69
2023/03/19 07:39:56;;;;;;;12.73;6.47;;;9.10;99.90;;;;;;5044850;28;20025;-67
2023/03/19 07:42:22;;;;;;;11.75;6.40;;;9.30;99.90;;;;;;5047606;28;20037;-68
2023/03/19 07:44:47;;;;;;;12.27;6.38;;;9.40;99.90;;;;;;5042998;28;20041;-66
2023/03/19 07:47:13;;;;;;;14.25;6.22;;;9.50;99.90;;;;;;5043254;28;20082;-69
2023/03/19 07:49:39;;;;;;;10.18;6.03;;;9.60;99.90;;;;;;5039856;28;20037;-68
2023/03/19 07:52:05;;;;;;;10.70;5.95;;;9.70;99.90;;;;;;5041425;28;20093;-69
2023/03/19 07:54:31;;;;;;;11.27;5.57;;;9.90;99.90;;;;;;5041375;28;20033;-69
2023/03/19 07:56:56;;;;;;;11.20;6.03;;;9.90;99.90;;;;;;5038697;28;21250;-70
2023/03/19 07:59:22;;;;;;;8.55;5.20;;;10.00;99.90;;;;;;5042627;28;20461;-70
2023/03/19 08:01:48;;;;;;;10.43;5.80;;;10.10;99.90;;;;;;5051105;28;20033;-67
2023/03/19 08:04:13;;;;;;;10.45;5.70;;;10.10;99.90;;;;;;5036940;28;20486;-69
2023/03/19 08:06:39;;;;;;;12.88;6.20;;;10.20;99.90;;;;;;5049864;28;20456;-69
2023/03/19 08:09:05;;;;;;;11.55;5.90;;;10.20;99.90;;;;;;5048651;28;20040;-69
2023/03/19 08:11:31;;;;;;;8.82;5.18;;;10.30;99.90;;;;;;5045286;28;21230;-69
2023/03/19 08:13:57;;;;;;;9.73;5.18;;;10.40;99.90;;;;;;5046599;28;20049;-70
2023/03/19 08:16:23;;;;;;;10.80;5.85;;;10.50;99.90;;;;;;5044083;28;20544;-66
2023/03/19 08:18:49;;;;;;;11.55;5.60;;;10.60;99.90;;;;;;5040977;28;20033;-66
2023/03/19 08:21:15;;;;;;;11.63;6.32;;;10.70;99.90;;;;;;5046887;28;20606;-66
2023/03/19 08:23:40;;;;;;;13.50;7.00;;;10.80;99.90;;;;;;5042008;28;20036;-68
2023/03/19 08:26:07;;;;;;;10.35;5.25;;;10.80;99.90;;;;;;5049820;28;20342;-69
2023/03/19 08:28:32;;;;;;;9.27;5.03;;;10.90;99.90;;;;;;5040875;28;20037;-68
2023/03/19 08:31:06;;;;;;;7.38;4.15;;;10.90;99.90;;;;;;5045001;28;20091;-69
2023/03/19 08:33:31;;;;;;;10.25;5.35;;;10.90;99.90;;;;;;5042497;28;20503;-68
2023/03/19 08:36:07;;;;;;;10.80;5.72;;;11.00;99.90;;;;;;5041321;28;20029;-67
2023/03/19 08:38:33;;;;;;;14.48;6.88;;;11.20;99.90;;;;;;5040398;28;20064;-68
2023/03/19 08:41:01;;;;;;;11.45;6.85;;;11.20;99.90;;;;;;5043816;28;20226;-69
2023/03/19 08:43:27;;;;;;;11.48;6.68;;;11.30;99.90;;;;;;5045292;28;20032;-69
2023/03/19 08:45:53;;;;;;;9.73;5.43;;;11.40;99.90;;;;;;5044245;28;20033;-66
2023/03/19 08:48:19;;;;;;;9.02;4.35;;;11.50;99.90;;;;;;5043648;28;20037;-67
2023/03/19 08:50:44;;;;;;;6.97;4.13;;;11.40;99.90;;;;;;5043850;28;20662;-65
2023/03/19 08:53:10;;;;;;;6.07;3.50;;;11.50;99.90;;;;;;5044054;28;20043;-67
2023/03/19 08:55:36;;;;;;;7.55;4.03;;;11.50;99.90;;;;;;5038592;28;20549;-70
2023/03/19 08:58:01;;;;;;;5.97;3.95;;;11.50;99.90;;;;;;5036070;28;20045;-69
2023/03/19 09:00:27;;;;;;;9.25;4.15;;;11.50;99.90;;;;;;5033531;28;20046;-68
2023/03/19 09:02:52;;;;;;;8.25;3.72;;;11.50;99.90;;;;;;5041282;28;20032;-65
2023/03/19 09:05:21;;;;;;;7.40;4.20;;;11.70;99.90;;;;;;5031745;28;20029;-68
2023/03/19 09:07:47;;;;;;;8.40;4.22;;;11.70;99.90;;;;;;5038403;28;20024;-65
2023/03/19 09:10:13;;;;;;;9.90;4.30;;;11.70;99.90;;;;;;5049519;28;20082;-67
2023/03/19 09:12:39;;;;;;;7.80;3.67;;;11.80;99.90;;;;;;5040971;28;20066;-70
2023/03/19 09:15:05;;;;;;;9.73;4.20;;;11.90;99.90;;;;;;5046926;28;20032;-70
2023/03/19 09:17:31;;;;;;;8.23;4.00;;;11.90;99.90;;;;;;5055589;28;20033;-69
2023/03/19 09:19:56;;;;;;;10.02;3.75;;;11.90;99.90;;;;;;5039100;28;20045;-72
2023/03/19 09:22:22;;;;;;;5.85;3.53;;;12.00;99.90;;;;;;5057718;28;20037;-71
2023/03/19 09:24:48;;;;;;;6.38;3.22;;;12.00;99.90;;;;;;5052367;28;20107;-67
2023/03/19 09:27:14;;;;;;;6.60;3.60;;;12.10;99.90;;;;;;5056282;28;20602;-70
2023/03/19 09:29:40;;;;;;;8.80;4.07;;;12.10;99.90;;;;;;5044877;28;20476;-70
2023/03/19 09:32:06;;;;;;;8.10;3.50;;;12.20;99.90;;;;;;5050876;28;20021;-68
2023/03/19 09:34:31;;;;;;;6.32;3.53;;;12.20;99.90;;;;;;5042840;28;20043;-70
2023/03/19 09:36:57;;;;;;;8.02;3.35;;;12.10;99.90;;;;;;5054531;28;20044;-71
2023/03/19 09:39:23;;;;;;;7.38;3.33;;;12.20;99.90;;;;;;5056610;28;20040;-71
2023/03/19 09:42:36;;;;;;;8.00;3.67;;;12.20;99.90;;;;;;5052530;28;20044;-71
2023/03/19 09:45:01;;;;;;;5.05;2.92;;;12.10;99.90;;;;;;4963318;28;20185;-69
2023/03/19 09:47:30;;;;;;;7.55;3.28;;;12.20;99.90;;;;;;4971948;28;20129;-71
2023/03/19 09:50:00;;;;;;;6.13;3.13;;;12.30;99.90;;;;;;4966419;28;20086;-65
2023/03/19 09:52:28;;;;;;;4.53;2.47;;;12.40;99.90;;;;;;4975215;28;20105;-72
2023/03/19 09:54:57;;;;;;;5.60;2.45;;;12.50;99.90;;;;;;4960477;28;20082;-67
2023/03/19 09:57:23;;;;;;;6.70;2.30;;;12.50;99.90;;;;;;4971196;28;20035;-72
2023/03/19 09:59:51;;;;;;;5.90;2.28;;;12.50;99.90;;;;;;4967729;28;20081;-72
2023/03/19 10:02:36;;;;;;;2.90;1.67;;;12.70;99.90;;;;;;4965356;28;20038;-74
2023/03/19 10:05:24;;;;;;;4.78;2.20;;;12.90;99.90;;;;;;4961678;28;20392;-71
2023/03/19 10:08:17;;;;;;;4.50;1.88;;;13.10;99.90;;;;;;4972976;28;20574;-70
2023/03/19 10:11:07;;;;;;;3.13;1.90;;;13.10;99.90;;;;;;4968278;28;20039;-70
2023/03/19 10:14:09;;;;;;;3.70;1.80;;;13.20;99.90;;;;;;4950598;28;20089;-69
2023/03/19 10:16:38;;;;;;;5.72;2.00;;;13.30;99.90;;;;;;5019649;28;20025;-71
2023/03/19 10:19:05;;;;;;;7.13;1.85;;;13.40;99.90;;;;;;5066105;28;20020;-70
2023/03/19 10:21:41;;;;;;;3.78;1.80;;;13.60;99.90;;;;;;5048463;28;20068;-71
2023/03/19 10:24:30;;;;;;;8.57;1.73;;;13.70;99.90;;;;;;5048191;28;20048;-72
2023/03/19 10:27:00;;;;;;;5.72;1.50;;;13.70;99.90;;;;;;5052969;28;20037;-65
2023/03/19 10:29:27;;;;;;;3.33;1.17;;;13.80;99.90;;;;;;5053192;28;20025;-74
2023/03/19 10:32:07;;;;;;;3.92;1.60;;;13.80;99.90;;;;;;5051083;28;20047;-70
2023/03/19 10:34:56;;;;;;;3.42;1.92;;;13.80;99.90;;;;;;5048574;28;20033;-70
2023/03/19 10:37:26;;;;;;;5.82;1.63;;;14.00;99.90;;;;;;5049963;28;20039;-71
2023/03/19 10:39:58;;;;;;;4.00;1.63;;;14.20;99.90;;;;;;5065697;28;20028;-70
2023/03/19 10:43:02;;;;;;;3.72;1.67;;;14.30;99.90;;;;;;5045967;28;20098;-70
2023/03/19 10:45:34;;;;;;;3.20;1.60;;;14.00;99.90;;;;;;5048897;28;20385;-70
2023/03/19 10:48:01;;;;;;;6.25;2.42;;;13.70;99.90;;;;;;5055789;28;20025;-66
2023/03/19 10:50:34;;;;;;;12.50;2.20;;;13.70;99.90;;;;;;5048996;28;20106;-71
2023/03/19 10:53:12;;;;;;;5.00;1.58;;;13.70;99.90;;;;;;5063410;28;20098;-65
2023/03/19 10:55:43;;;;;;;5.82;1.75;;;13.90;99.90;;;;;;5056209;28;20167;-71
2023/03/19 10:58:18;;;;;;;4.38;1.73;;;13.90;99.90;;;;;;5058388;28;20032;-71
2023/03/19 11:00:48;;;;;;;2.53;1.40;;;14.30;99.90;;;;;;5055698;28;20032;-70
2023/03/19 11:03:38;;;;;;;5.13;1.70;;;14.60;99.90;;;;;;5041191;28;20057;-71
2023/03/19 11:06:06;;;;;;;10.27;2.10;;;14.70;99.90;;;;;;5049248;28;20032;-70
2023/03/19 11:08:36;;;;;;;3.08;1.77;;;14.60;99.90;;;;;;5049394;28;20029;-70
2023/03/19 11:11:02;;;;;;;4.68;2.03;;;14.70;99.90;;;;;;5047160;28;20025;-65
2023/03/19 11:13:29;;;;;;;3.70;2.00;;;14.80;99.90;;;;;;5060980;28;20111;-72
2023/03/19 11:15:58;;;;;;;6.25;1.98;;;15.00;99.90;;;;;;5046104;28;20030;-70
2023/03/19 11:18:29;;;;;;;4.63;1.95;;;15.20;99.90;;;;;;5062859;28;20029;-71
2023/03/19 11:21:04;;;;;;;3.85;1.90;;;15.10;99.90;;;;;;5058664;28;20052;-70
2023/03/19 11:23:40;;;;;;;6.05;2.30;;;15.10;99.90;;;;;;5059084;28;20396;-70
2023/03/19 11:26:06;;;;;;;6.22;2.08;;;15.30;99.90;;;;;;5053625;28;20047;-71
2023/03/19 11:28:32;;;;;;;3.72;1.95;;;15.40;99.90;;;;;;5055091;28;20388;-70
2023/03/19 11:31:13;;;;;;;5.10;2.10;;;15.50;99.90;;;;;;5063590;28;20033;-71
2023/03/19 11:34:32;;;;;;;8.20;2.40;;;15.90;99.90;;;;;;5052223;28;20032;-70
2023/03/19 11:37:27;;;;;;;11.85;2.55;;;16.10;99.90;;;;;;5045436;28;20040;-70
2023/03/19 11:40:09;;;;;;;4.82;2.20;;;16.20;99.90;;;;;;5051934;28;20070;-69
2023/03/19 11:42:37;;;;;;;5.50;2.13;;;16.40;99.90;;;;;;5051354;28;20048;-70
2023/03/19 11:45:12;;;;;;;7.40;2.20;;;16.80;99.90;;;;;;5056082;28;20029;-67
2023/03/19 11:47:57;;;;;;;4.93;2.30;;;17.00;99.90;;;;;;5066568;28;20035;-70
2023/03/19 11:50:43;;;;;;;5.95;2.30;;;16.70;99.90;;;;;;5047208;28;20508;-68
2023/03/19 11:53:21;;;;;;;5.07;2.22;;;15.90;99.90;;;;;;5056349;28;20028;-70
2023/03/19 11:55:56;;;;;;;7.00;2.40;;;15.90;99.90;;;;;;5065999;28;20028;-71
2023/03/19 11:58:33;;;;;;;6.05;2.00;;;16.00;99.90;;;;;;5059507;28;20016;-68
2023/03/19 12:01:24;;;;;;;4.95;2.40;;;15.90;99.90;;;;;;5056938;28;20029;-70
2023/03/19 12:04:01;;;;;;;10.50;2.83;;;15.70;99.90;;;;;;5002916;28;20490;-69
2023/03/19 12:06:40;;;;;;;5.22;2.63;;;15.50;99.90;;;;;;5060139;28;20089;-69
2023/03/19 12:09:21;;;;;;;5.72;2.83;;;15.40;99.90;;;;;;5042230;28;20032;-65
2023/03/19 12:11:59;;;;;;;5.97;2.65;;;15.50;99.90;;;;;;5067559;28;20136;-70
2023/03/19 12:14:30;;;;;;;8.00;2.30;;;15.60;99.10;;;;;;5055963;28;20107;-68
2023/03/19 12:17:11;;;;;;;5.78;2.50;;;15.80;99.90;;;;;;5068669;28;20024;-70
2023/03/19 12:19:54;;;;;;;11.18;2.80;;;16.30;99.90;;;;;;5059301;28;20841;-70
2023/03/19 12:22:49;;;;;;;9.05;2.40;;;16.40;98.40;;;;;;5058169;28;20037;-68
2023/03/19 12:25:46;;;;;;;7.45;2.85;;;16.20;99.90;;;;;;5069135;28;20040;-70
2023/03/19 12:28:25;;;;;;;7.90;2.45;;;16.30;99.90;;;;;;5066627;28;20031;-70
2023/03/19 12:31:05;;;;;;;9.18;2.88;;;16.30;99.90;;;;;;5066155;28;20038;-70
2023/03/19 12:34:11;;;;;;;5.20;2.28;;;16.30;99.90;;;;;;5066722;28;20103;-70
2023/03/19 12:36:48;;;;;;;7.35;2.85;;;16.50;99.90;;;;;;5037580;28;20041;-70
2023/03/19 12:39:18;;;;;;;5.32;2.97;;;16.00;99.90;;;;;;5052096;28;20116;-69
2023/03/19 12:41:47;;;;;;;5.18;2.30;;;15.40;99.90;;;;;;5064682;28;20032;-68
2023/03/19 12:44:33;;;;;;;5.72;2.45;;;15.30;99.90;;;;;;5056055;28;20430;-69
2023/03/19 12:47:08;;;;;;;5.88;2.33;;;15.50;99.90;;;;;;5053076;28;20033;-69
2023/03/19 12:49:56;;;;;;;5.15;2.70;;;15.40;99.90;;;;;;5059982;28;20028;-68
2023/03/19 12:52:32;;;;;;;5.57;2.20;;;15.50;99.90;;;;;;5061953;28;20036;-70
2023/03/19 12:55:02;;;;;;;4.55;2.33;;;15.70;99.90;;;;;;5061875;28;20108;-70